createdAt,value
2023-04-02T00:00:10.452Z,2.97
2023-04-02T00:02:58.264Z,2.40
2023-04-02T00:05:30.341Z,3.22
2023-04-02T00:08:03.794Z,1.65
2023-04-02T00:10:35.169Z,2.53
2023-04-02T00:13:05.013Z,2.17
2023-04-02T00:15:33.394Z,1.85
2023-04-02T00:18:02.173Z,1.98
2023-04-02T00:20:35.377Z,2.58
2023-04-02T00:23:03.351Z,3.22
2023-04-02T00:25:36.556Z,1.98
2023-04-02T00:28:04.263Z,2.67
2023-04-02T00:30:31.936Z,2.63
2023-04-02T00:32:59.339Z,3.63
2023-04-02T00:35:29.073Z,1.67
2023-04-02T00:37:56.877Z,1.88
2023-04-02T00:40:26.757Z,2.25
2023-04-02T00:42:57.877Z,2.50
2023-04-02T00:45:31.924Z,3.55
2023-04-02T00:48:13.915Z,1.83
2023-04-02T00:50:44.483Z,2.88
2023-04-02T00:53:24.351Z,2.28
2023-04-02T00:55:52.200Z,2.30
2023-04-02T00:58:27.722Z,1.90
2023-04-02T01:00:55.030Z,3.85
2023-04-02T01:03:28.919Z,2.20
2023-04-02T01:06:03.616Z,2.15
2023-04-02T01:08:44.031Z,2.13
2023-04-02T01:11:36.194Z,2.28
2023-04-02T01:14:36.057Z,2.90
2023-04-02T01:17:19.926Z,4.03
2023-04-02T01:20:01.936Z,4.97
2023-04-02T01:22:47.884Z,2.90
2023-04-02T01:25:24.976Z,2.22
2023-04-02T01:28:04.869Z,2.30
2023-04-02T01:30:36.576Z,2.60
2023-04-02T01:33:05.560Z,2.42
2023-04-02T01:35:38.663Z,3.22
2023-04-02T01:38:30.376Z,2.42
2023-04-02T01:41:12.789Z,2.22
2023-04-02T01:44:21.448Z,1.98
2023-04-02T01:46:49.376Z,1.90
2023-04-02T01:49:22.483Z,2.95
2023-04-02T01:51:56.827Z,2.08
2023-04-02T01:54:28.777Z,2.42
2023-04-02T01:56:57.461Z,2.00
2023-04-02T01:59:26.311Z,2.20
2023-04-02T02:04:34.555Z,2.70
2023-04-02T02:07:02.843Z,1.92
2023-04-02T02:09:35.739Z,1.77
2023-04-02T02:12:04.753Z,1.98
2023-04-02T02:14:32.471Z,2.40
2023-04-02T02:17:02.420Z,3.00
2023-04-02T02:19:29.567Z,1.92
2023-04-02T02:22:27.723Z,2.55
2023-04-02T02:24:57.592Z,2.55
2023-04-02T02:27:25.148Z,1.92
2023-04-02T02:30:24.782Z,2.10
2023-04-02T02:33:17.018Z,2.08
2023-04-02T02:36:01.106Z,2.30
2023-04-02T02:38:54.095Z,2.40
2023-04-02T02:41:41.464Z,3.15
2023-04-02T02:44:09.419Z,3.70
2023-04-02T02:46:51.654Z,2.97
2023-04-02T02:49:32.888Z,2.88
2023-04-02T02:52:14.869Z,2.17
2023-04-02T02:54:56.951Z,2.53
2023-04-02T02:57:33.891Z,3.25
2023-04-02T03:00:02.313Z,2.33
2023-04-02T03:02:35.311Z,2.28
2023-04-02T03:05:04.928Z,2.97
2023-04-02T03:07:32.505Z,2.70
2023-04-02T03:10:04.094Z,2.58
2023-04-02T03:12:39.730Z,2.80
2023-04-02T03:15:23.289Z,3.20
2023-04-02T03:18:01.930Z,2.95
2023-04-02T03:20:55.952Z,2.15
2023-04-02T03:23:43.107Z,2.10
2023-04-02T03:26:27.998Z,3.00
2023-04-02T03:29:02.693Z,2.53
2023-04-02T03:31:37.929Z,2.38
2023-04-02T03:34:13.588Z,2.45
2023-04-02T03:36:51.205Z,2.03
2023-04-02T03:39:25.824Z,2.20
2023-04-02T03:42:16.992Z,2.40
2023-04-02T03:45:03.422Z,2.17
2023-04-02T03:47:34.100Z,2.28
2023-04-02T03:50:18.428Z,1.90
2023-04-02T03:55:21.632Z,2.25
2023-04-02T03:58:11.250Z,2.53
2023-04-02T04:00:42.404Z,2.65
2023-04-02T04:03:50.564Z,2.70
2023-04-02T04:06:29.582Z,3.42
2023-04-02T04:09:08.996Z,2.35
2023-04-02T04:11:43.920Z,2.00
2023-04-02T04:14:19.811Z,2.40
2023-04-02T04:17:04.443Z,4.20
2023-04-02T04:19:54.924Z,2.97
2023-04-02T04:22:30.188Z,2.95
2023-04-02T04:25:07.593Z,2.75
2023-04-02T04:28:17.341Z,2.85
2023-04-02T04:31:11.093Z,3.72
2023-04-02T04:33:46.426Z,5.45
2023-04-02T04:36:31.408Z,5.28
2023-04-02T04:39:14.635Z,8.23
2023-04-02T04:41:47.637Z,7.72
2023-04-02T04:44:23.091Z,7.68
2023-04-02T04:47:03.497Z,9.65
2023-04-02T04:49:45.004Z,10.55
2023-04-02T04:52:17.930Z,12.00
2023-04-02T04:54:47.196Z,11.90
2023-04-02T04:57:29.743Z,14.88
2023-04-02T05:00:12.963Z,14.98
2023-04-02T05:02:52.633Z,16.77
2023-04-02T05:05:29.461Z,16.30
2023-04-02T05:08:11.117Z,17.00
2023-04-02T05:10:44.837Z,19.00
2023-04-02T05:13:28.744Z,22.38
2023-04-02T05:16:24.067Z,26.63
2023-04-02T05:19:06.369Z,31.70
2023-04-02T05:21:49.707Z,32.00
2023-04-02T05:24:46.558Z,34.72
2023-04-02T05:27:39.599Z,35.15
2023-04-02T05:30:52.741Z,35.78
2023-04-02T05:33:28.240Z,35.58
2023-04-02T05:36:05.270Z,34.95
2023-04-02T05:38:46.358Z,32.30
2023-04-02T05:41:36.781Z,28.73
2023-04-02T05:44:31.259Z,24.95
2023-04-02T05:47:04.511Z,21.55
2023-04-02T05:49:36.827Z,16.55
2023-04-02T05:52:06.865Z,12.68
2023-04-02T05:55:03.685Z,13.45
2023-04-02T05:57:46.801Z,13.48
2023-04-02T06:00:41.890Z,13.40
2023-04-02T06:03:27.305Z,13.85
2023-04-02T06:06:01.140Z,20.10
2023-04-02T06:08:41.594Z,21.33
2023-04-02T06:11:13.828Z,21.30
2023-04-02T06:13:42.296Z,22.03
2023-04-02T06:16:14.506Z,22.15
2023-04-02T06:18:43.662Z,21.33
2023-04-02T06:21:15.543Z,21.55
2023-04-02T06:23:58.843Z,21.80
2023-04-02T06:26:33.042Z,23.85
2023-04-02T06:29:41.225Z,23.40
2023-04-02T06:32:13.903Z,25.80
2023-04-02T06:34:45.285Z,24.45
2023-04-02T06:37:37.725Z,26.52
2023-04-02T06:40:41.612Z,30.13
2023-04-02T06:43:50.794Z,29.98
2023-04-02T06:46:53.176Z,32.85
2023-04-02T06:49:30.234Z,34.25
2023-04-02T06:52:04.583Z,33.53
2023-04-02T06:54:32.121Z,34.67
2023-04-02T06:57:07.092Z,32.95
2023-04-02T06:59:37.976Z,32.70
2023-04-02T07:02:23.501Z,33.63
2023-04-02T07:04:51.049Z,33.17
2023-04-02T07:07:19.825Z,32.10
2023-04-02T07:09:48.516Z,35.08
2023-04-02T07:12:23.653Z,35.60
2023-04-02T07:14:51.321Z,33.78
2023-04-02T07:17:20.216Z,33.13
2023-04-02T07:19:49.670Z,32.92
2023-04-02T07:22:19.841Z,34.65
2023-04-02T07:24:51.389Z,36.22
2023-04-02T07:27:18.604Z,36.22
2023-04-02T07:29:45.795Z,37.75
2023-04-02T07:32:13.813Z,40.83
2023-04-02T07:34:41.905Z,42.33
2023-04-02T07:37:13.950Z,37.30
2023-04-02T07:39:41.744Z,42.95
2023-04-02T07:42:09.327Z,42.97
2023-04-02T07:44:36.426Z,45.83
2023-04-02T07:47:03.719Z,48.75
2023-04-02T07:49:30.970Z,45.97
2023-04-02T07:51:58.073Z,46.28
2023-04-02T07:54:27.125Z,47.13
2023-04-02T07:56:54.400Z,49.58
2023-04-02T07:59:21.604Z,47.22
2023-04-02T08:01:48.761Z,49.13
2023-04-02T08:04:18.909Z,50.10
2023-04-02T08:06:47.365Z,47.55
2023-04-02T08:09:15.762Z,47.95
2023-04-02T08:11:43.681Z,49.78
2023-04-02T08:14:10.817Z,48.28
2023-04-02T08:16:49.406Z,47.33
2023-04-02T08:19:17.747Z,50.70
2023-04-02T08:21:45.166Z,48.15
2023-04-02T08:24:12.276Z,50.30
2023-04-02T08:26:39.413Z,47.67
2023-04-02T08:29:06.570Z,47.80
2023-04-02T08:31:33.674Z,47.20
2023-04-02T08:34:01.567Z,48.08
2023-04-02T08:36:38.102Z,50.88
2023-04-02T08:39:10.909Z,48.97
2023-04-02T08:41:45.637Z,49.42
2023-04-02T08:44:27.957Z,47.70
2023-04-02T08:47:07.334Z,43.90
2023-04-02T08:49:56.001Z,45.03
2023-04-02T08:52:28.284Z,41.75
2023-04-02T08:54:57.897Z,46.53
2023-04-02T08:57:42.284Z,44.95
2023-04-02T09:00:15.740Z,43.90
2023-04-02T09:02:49.597Z,47.22
2023-04-02T09:05:24.141Z,41.33
2023-04-02T09:07:52.619Z,43.35
2023-04-02T09:10:21.479Z,39.67
2023-04-02T09:12:53.386Z,40.80
2023-04-02T09:15:31.303Z,44.83
2023-04-02T09:18:14.949Z,42.38
2023-04-02T09:20:42.744Z,43.13
2023-04-02T09:23:19.736Z,45.25
2023-04-02T09:26:02.920Z,42.85
2023-04-02T09:28:31.975Z,42.70
2023-04-02T09:31:11.047Z,42.13
2023-04-02T09:33:48.314Z,40.50
2023-04-02T09:36:28.168Z,41.10
2023-04-02T09:39:22.708Z,41.80
2023-04-02T09:42:02.734Z,36.78
2023-04-02T09:44:32.558Z,34.60
2023-04-02T09:47:05.951Z,39.60
2023-04-02T09:49:36.122Z,37.30
2023-04-02T09:52:18.742Z,37.38
2023-04-02T09:54:46.740Z,34.38
2023-04-02T09:57:27.930Z,33.13
2023-04-02T10:02:45.322Z,30.88
2023-04-02T10:05:38.913Z,26.88
2023-04-02T10:08:28.107Z,25.42
2023-04-02T10:10:59.498Z,20.85
2023-04-02T10:13:48.143Z,22.98
2023-04-02T10:16:19.524Z,26.00
2023-04-02T10:18:51.872Z,21.83
2023-04-02T10:21:26.878Z,20.30
2023-04-02T10:23:55.450Z,18.88
2023-04-02T10:26:37.495Z,19.85
2023-04-02T10:29:31.018Z,15.38
2023-04-02T10:32:20.458Z,16.08
2023-04-02T10:34:52.946Z,18.13
2023-04-02T10:37:41.429Z,17.80
2023-04-02T10:40:20.211Z,18.40
2023-04-02T10:43:34.395Z,17.52
2023-04-02T10:46:25.927Z,14.73
2023-04-02T10:48:58.704Z,13.90
2023-04-02T10:51:31.905Z,12.27
2023-04-02T10:54:27.900Z,12.57
2023-04-02T10:57:10.572Z,13.25
2023-04-02T10:59:43.245Z,13.40
2023-04-02T11:02:39.405Z,13.63
2023-04-02T11:05:40.739Z,11.00
2023-04-02T11:08:33.246Z,7.90
2023-04-02T11:11:07.827Z,5.18
2023-04-02T11:13:40.857Z,4.97
2023-04-02T11:16:08.075Z,5.78
2023-04-02T11:18:38.710Z,7.97
2023-04-02T11:21:27.221Z,6.95
2023-04-02T11:24:00.774Z,7.93
2023-04-02T11:26:41.043Z,7.40
2023-04-02T11:29:14.293Z,5.97
2023-04-02T11:31:42.842Z,6.20
2023-04-02T11:34:31.953Z,6.78
2023-04-02T11:37:00.583Z,6.70
2023-04-02T11:39:46.491Z,7.28
2023-04-02T11:42:19.511Z,4.03
2023-04-02T11:44:46.728Z,4.22
2023-04-02T11:47:21.315Z,3.65
2023-04-02T11:49:58.834Z,3.33
2023-04-02T11:52:47.498Z,3.83
2023-04-02T11:55:27.092Z,5.22
2023-04-02T11:58:23.883Z,3.72
2023-04-02T12:01:18.330Z,3.75
2023-04-02T12:03:53.821Z,3.45
2023-04-02T12:06:31.233Z,3.95
2023-04-02T12:09:27.182Z,4.25
2023-04-02T12:12:00.981Z,4.20
2023-04-02T12:14:48.468Z,5.68
2023-04-02T12:17:24.909Z,5.30
2023-04-02T12:19:55.312Z,5.20
2023-04-02T12:22:31.074Z,6.53
2023-04-02T12:25:01.035Z,9.82
2023-04-02T12:27:29.591Z,6.68
2023-04-02T12:30:12.995Z,5.60
2023-04-02T12:32:40.765Z,5.70
2023-04-02T12:35:33.219Z,5.50
2023-04-02T12:38:01.027Z,9.00
2023-04-02T12:40:28.538Z,7.72
2023-04-02T12:42:55.979Z,6.07
2023-04-02T12:45:28.589Z,11.80
2023-04-02T12:50:24.818Z,7.88
2023-04-02T12:52:55.552Z,5.03
2023-04-02T12:55:24.929Z,5.07
2023-04-02T12:57:59.619Z,5.20
2023-04-02T13:00:29.925Z,5.18
2023-04-02T13:03:06.440Z,4.47
2023-04-02T13:05:45.938Z,5.82
2023-04-02T13:08:19.373Z,4.57
2023-04-02T13:13:24.715Z,4.90
2023-04-02T13:16:03.897Z,4.90
2023-04-02T13:18:32.727Z,5.30
2023-04-02T13:21:21.169Z,5.25
2023-04-02T13:23:48.460Z,5.13
2023-04-02T13:26:22.253Z,5.88
2023-04-02T13:29:02.686Z,7.00
2023-04-02T13:31:33.375Z,7.75
2023-04-02T13:34:00.704Z,8.45
2023-04-02T13:36:29.465Z,9.73
2023-04-02T13:38:57.493Z,11.32
2023-04-02T13:41:30.562Z,11.77
2023-04-02T13:44:00.421Z,12.75
2023-04-02T13:46:35.227Z,14.32
2023-04-02T13:49:02.566Z,14.75
2023-04-02T13:51:39.212Z,16.00
2023-04-02T13:54:20.418Z,13.80
2023-04-02T13:56:47.933Z,15.35
2023-04-02T13:59:16.046Z,14.48
2023-04-02T14:01:44.725Z,13.18
2023-04-02T14:04:17.716Z,12.57
2023-04-02T14:07:03.224Z,12.82
2023-04-02T14:09:50.353Z,9.88
2023-04-02T14:12:24.695Z,7.45
2023-04-02T14:15:13.993Z,6.93
2023-04-02T14:18:26.778Z,7.13
2023-04-02T14:21:09.270Z,7.03
2023-04-02T14:23:53.903Z,7.13
2023-04-02T14:26:33.017Z,6.75
2023-04-02T14:29:09.911Z,7.55
2023-04-02T14:31:41.930Z,5.43
2023-04-02T14:34:50.267Z,5.85
2023-04-02T14:37:23.827Z,4.40
2023-04-02T14:40:14.286Z,3.50
2023-04-02T14:42:53.158Z,3.08
2023-04-02T14:45:38.738Z,3.42
2023-04-02T14:48:16.762Z,3.72
2023-04-02T14:50:44.096Z,3.25
2023-04-02T14:53:43.718Z,2.92
2023-04-02T14:56:13.057Z,3.42
2023-04-02T14:58:48.564Z,3.25
2023-04-02T15:01:27.571Z,3.15
2023-04-02T15:04:02.182Z,3.50
2023-04-02T15:06:37.898Z,2.17
2023-04-02T15:09:17.337Z,2.28
2023-04-02T15:12:02.662Z,2.50
2023-04-02T15:14:32.802Z,1.88
2023-04-02T15:16:59.943Z,3.08
2023-04-02T15:19:27.052Z,2.03
2023-04-02T15:22:27.457Z,2.20
2023-04-02T15:24:57.284Z,1.90
2023-04-02T15:27:30.321Z,1.90
2023-04-02T15:30:20.408Z,2.67
2023-04-02T15:32:48.963Z,2.28
2023-04-02T15:35:38.168Z,2.10
2023-04-02T15:38:14.489Z,1.98
2023-04-02T15:41:08.764Z,1.70
2023-04-02T15:46:42.038Z,1.80
2023-04-02T15:49:46.275Z,2.05
2023-04-02T15:52:38.336Z,2.50
2023-04-02T15:55:41.540Z,2.75
2023-04-02T15:58:27.488Z,2.63
2023-04-02T16:01:08.328Z,2.92
2023-04-02T16:03:49.498Z,2.50
2023-04-02T16:06:19.832Z,2.53
2023-04-02T16:08:57.283Z,2.70
2023-04-02T16:11:26.076Z,2.80
2023-04-02T16:14:13.402Z,2.45
2023-04-02T16:16:42.367Z,3.00
2023-04-02T16:19:28.764Z,3.25
2023-04-02T16:22:18.151Z,2.30
2023-04-02T16:24:50.265Z,2.30
2023-04-02T16:27:37.562Z,3.33
2023-04-02T16:30:43.533Z,3.13
2023-04-02T16:33:32.792Z,2.78
2023-04-02T16:36:02.605Z,2.60
2023-04-02T16:38:57.464Z,2.58
2023-04-02T16:41:27.431Z,2.15
2023-04-02T16:44:35.548Z,1.95
2023-04-02T16:47:17.673Z,2.55
2023-04-02T16:50:23.135Z,2.58
2023-04-02T16:52:59.811Z,2.65
2023-04-02T16:56:08.176Z,2.40
2023-04-02T16:58:50.104Z,2.75
2023-04-02T17:01:42.785Z,2.75
2023-04-02T17:04:21.924Z,2.47
2023-04-02T17:07:15.698Z,2.30
2023-04-02T17:09:51.050Z,2.95
2023-04-02T17:12:28.040Z,2.60
2023-04-02T17:15:00.969Z,2.42
2023-04-02T17:17:28.217Z,3.15
2023-04-02T17:19:59.546Z,3.00
2023-04-02T17:22:27.923Z,3.58
2023-04-02T17:25:01.527Z,2.70
2023-04-02T17:30:18.326Z,2.63
2023-04-02T17:32:46.067Z,3.88
2023-04-02T17:35:42.167Z,4.00
2023-04-02T17:38:25.605Z,3.78
2023-04-02T17:41:13.281Z,4.25
2023-04-02T17:43:46.360Z,4.65
2023-04-02T17:46:34.614Z,5.07
2023-04-02T17:49:24.662Z,4.80
2023-04-02T17:52:23.433Z,5.50
2023-04-02T17:55:02.543Z,5.43
2023-04-02T17:57:41.745Z,5.22
2023-04-02T18:00:21.480Z,5.60
2023-04-02T18:03:06.867Z,5.55
2023-04-02T18:05:48.954Z,5.53
2023-04-02T18:08:34.024Z,6.20
2023-04-02T18:11:13.743Z,7.35
2023-04-02T18:13:55.907Z,6.60
2023-04-02T18:16:46.473Z,7.05
2023-04-02T18:19:18.321Z,7.40
2023-04-02T18:21:57.934Z,7.55
2023-04-02T18:24:55.692Z,8.07
2023-04-02T18:27:45.671Z,7.70
2023-04-02T18:30:23.555Z,7.35
2023-04-02T18:33:15.632Z,7.70
2023-04-02T18:35:54.262Z,7.30
2023-04-02T18:38:40.321Z,7.25
2023-04-02T18:41:32.113Z,6.93
2023-04-02T18:44:02.178Z,6.43
2023-04-02T18:46:48.054Z,6.78
2023-04-02T18:49:34.412Z,9.07
2023-04-02T18:52:09.487Z,8.77
2023-04-02T18:54:44.383Z,8.90
2023-04-02T18:57:15.581Z,8.68
2023-04-02T18:59:53.468Z,8.52
2023-04-02T19:02:20.705Z,10.23
2023-04-02T19:05:23.621Z,11.38
2023-04-02T19:07:55.134Z,9.27
2023-04-02T19:10:35.277Z,12.90
2023-04-02T19:13:02.475Z,13.30
2023-04-02T19:15:43.203Z,11.93
2023-04-02T19:18:16.395Z,13.15
2023-04-02T19:21:28.929Z,12.07
2023-04-02T19:24:15.026Z,12.45
2023-04-02T19:27:05.082Z,12.23
2023-04-02T19:29:59.283Z,12.88
2023-04-02T19:32:35.690Z,13.82
2023-04-02T19:35:29.652Z,12.45
2023-04-02T19:38:02.887Z,14.13
2023-04-02T19:40:42.193Z,17.30
2023-04-02T19:43:10.692Z,15.43
2023-04-02T19:45:41.736Z,14.95
2023-04-02T19:48:21.106Z,12.98
2023-04-02T19:50:49.328Z,13.55
2023-04-02T19:53:17.354Z,13.68
2023-04-02T19:55:45.051Z,12.80
2023-04-02T19:58:27.245Z,11.57
2023-04-02T20:00:54.859Z,11.32
2023-04-02T20:03:22.271Z,12.90
2023-04-02T20:05:49.551Z,11.73
2023-04-02T20:08:16.793Z,11.25
2023-04-02T20:10:44.385Z,12.57
2023-04-02T20:13:12.006Z,13.43
2023-04-02T20:15:40.011Z,13.30
2023-04-02T20:18:07.359Z,13.63
2023-04-02T20:20:34.868Z,11.18
2023-04-02T20:23:02.313Z,11.07
2023-04-02T20:25:29.463Z,10.60
2023-04-02T20:27:56.851Z,11.77
2023-04-02T20:30:24.039Z,11.27
2023-04-02T20:32:51.435Z,9.05
2023-04-02T20:35:18.634Z,9.95
2023-04-02T20:37:45.728Z,10.35
2023-04-02T20:40:12.938Z,10.20
2023-04-02T20:42:40.102Z,11.45
2023-04-02T20:45:08.791Z,9.10
2023-04-02T20:47:35.948Z,9.82
2023-04-02T20:50:03.203Z,10.63
2023-04-02T20:52:32.324Z,10.52
2023-04-02T20:54:59.433Z,10.05
2023-04-02T20:57:29.650Z,10.98
2023-04-02T20:59:58.797Z,9.35
2023-04-02T21:02:26.116Z,9.45
2023-04-02T21:04:55.469Z,10.02
2023-04-02T21:07:22.841Z,10.75
2023-04-02T21:09:51.723Z,10.80
2023-04-02T21:12:19.303Z,10.13
2023-04-02T21:14:48.308Z,9.63
2023-04-02T21:17:16.064Z,8.93
2023-04-02T21:19:43.222Z,8.77
2023-04-02T21:22:10.364Z,8.40
2023-04-02T21:24:37.476Z,9.40
2023-04-02T21:27:04.621Z,8.82
2023-04-02T21:29:31.855Z,8.98
2023-04-02T21:32:01.562Z,8.18
2023-04-02T21:36:59.938Z,7.30
2023-04-02T21:39:27.250Z,7.15
2023-04-02T21:41:54.745Z,7.18
2023-04-02T21:44:23.536Z,7.45
2023-04-02T21:46:52.970Z,7.13
2023-04-02T21:49:22.711Z,8.13
2023-04-02T21:51:51.620Z,7.25
2023-04-02T21:54:19.599Z,7.80
2023-04-02T21:56:46.906Z,6.72
2023-04-02T21:59:15.801Z,6.47
2023-04-02T22:01:46.523Z,7.10
2023-04-02T22:04:22.997Z,6.05
2023-04-02T22:06:52.082Z,5.40
2023-04-02T22:09:22.494Z,6.28
2023-04-02T22:11:54.289Z,6.55
2023-04-02T22:14:23.282Z,5.65
2023-04-02T22:16:51.907Z,6.32
2023-04-02T22:19:19.229Z,6.50
2023-04-02T22:21:46.442Z,6.55
2023-04-02T22:24:16.259Z,5.88
2023-04-02T22:26:44.283Z,6.38
2023-04-02T22:29:11.821Z,6.53
2023-04-02T22:31:39.113Z,6.88
2023-04-02T22:34:07.226Z,6.68
2023-04-02T22:36:35.329Z,7.20
2023-04-02T22:39:05.585Z,6.90
2023-04-02T22:41:33.294Z,6.55
2023-04-02T22:44:01.838Z,6.75
2023-04-02T22:46:30.117Z,6.53
2023-04-02T22:48:58.096Z,6.47
2023-04-02T22:51:26.057Z,7.70
2023-04-02T22:53:54.834Z,7.38
2023-04-02T22:56:26.712Z,6.60
2023-04-02T22:58:53.989Z,7.38
2023-04-02T23:01:24.554Z,6.82
2023-04-02T23:03:54.003Z,6.80
2023-04-02T23:06:21.843Z,7.13
2023-04-02T23:08:49.052Z,6.38
2023-04-02T23:11:22.223Z,7.50
2023-04-02T23:13:51.706Z,5.75
2023-04-02T23:16:19.760Z,6.63
2023-04-02T23:18:48.361Z,5.72
2023-04-02T23:21:17.355Z,6.68
2023-04-02T23:23:45.317Z,6.53
2023-04-02T23:26:16.734Z,5.72
2023-04-02T23:28:44.479Z,5.95
2023-04-02T23:31:14.337Z,6.43
2023-04-02T23:33:41.600Z,5.93
2023-04-02T23:36:10.530Z,5.82
2023-04-02T23:38:37.680Z,6.20
2023-04-02T23:41:04.925Z,5.32
2023-04-02T23:43:32.039Z,6.57
2023-04-02T23:45:59.157Z,6.03
2023-04-02T23:48:26.294Z,7.18
2023-04-02T23:50:53.412Z,7.05
2023-04-02T23:53:20.611Z,6.13
2023-04-02T23:55:48.009Z,5.85
2023-04-02T23:58:15.406Z,6.28
